Friday, March 6, 2015, 12:55 AM EST

KPTW, Pottstown Limerick Airport

Location: Royersford, PA, United States Lat: 40.233
Local Time: 12:55 AM EST ( 5:55 GMT) Lon: -75.55
Time Zone: US/Eastern Elev: 291 ft

Show me the last for .
Show Decoded

2015-03-05 23:54 METAR KPTW 060454Z AUTO 34008KT 10SM CLR M09/M16 A3043 RMK AO2 SLP306 T10891156
                 400221089 =
2015-03-05 22:54 METAR KPTW 060354Z AUTO 35007KT 10SM CLR M08/M14 A3042 RMK AO2 SLP303 T10781139
                 =
2015-03-05 21:54 METAR KPTW 060254Z AUTO 34005KT 10SM SCT120 M07/M13 A3039 RMK AO2 SLP292 60000
                 T10721128 53029 =
2015-03-05 19:54 METAR KPTW 060054Z AUTO 31004KT 10SM SCT070 OVC090 M07/M11 A3031 RMK AO2 UPE12
                 SLP267 P0000 T10721111 =
2015-03-05 18:54 METAR KPTW 052354Z AUTO 31004KT 10SM UP OVC095 M07/M10 A3030 RMK AO2 SLP261
                 P0000 60007 T10721100 11067 21078 53022 =
2015-03-05 17:18 METAR KPTW 052218Z AUTO 33006KT 8SM -SN FEW029 SCT042 OVC090 M08/M10 A3028 RMK
                 AO2 P0000 T10781100 =
2015-03-05 17:11 METAR KPTW 052211Z AUTO 31008KT 5SM -SN BR BKN029 BKN042 OVC090 M08/M10 A3028
                 RMK AO2 PRESRR P0000 T10781100 =
2015-03-05 17:02 METAR KPTW 052202Z AUTO 34008KT 2SM -SN BR BKN025 BKN042 OVC049 M08/M09 A3024
                 RMK AO2 P0000 T10781094 =
2015-03-05 16:54 METAR KPTW 052154Z AUTO 33007KT 1 3/4SM -SN BR OVC021 M08/M09 A3023 RMK AO2
                 SLP239 P0001 T10781094 =
2015-03-05 16:27 METAR KPTW 052127Z AUTO 34008KT 1SM -SN BR VV015 M07/M09 A3025 RMK AO2 P0001
                 T10721089 =
2015-03-05 16:15 METAR KPTW 052115Z AUTO 36007KT 3/4SM -SN BR VV013 M08/M09 A3024 RMK AO2 P0000
                 T10781089 =
2015-03-05 16:08 METAR KPTW 052108Z AUTO 01008KT 1 1/4SM -SN BR OVC015 M07/M09 A3023 RMK AO2
                 P0000 T10721089 =
2015-03-05 15:54 METAR KPTW 052054Z AUTO 35005KT 1SM -SN BR VV013 M07/M09 A3023 RMK AO2 SLP239
                 P0003 60006 T10721089 50005 =
2015-03-05 15:50 METAR KPTW 052050Z AUTO 36007KT 1SM -SN BR VV011 M07/M09 A3023 RMK AO2 P0003 =
2015-03-05 14:54 METAR KPTW 051954Z AUTO 33005KT 3/4SM -SN BR VV012 M07/M09 A3022 RMK AO2 SLP235
                 P0003 T10721089 $ =
2015-03-05 14:38 METAR KPTW 051938Z AUTO 34004KT 1SM -SN BR VV013 M07/M09 A3022 RMK AO2 P0002
                 T10721089 $ =
2015-03-05 14:29 METAR KPTW 051929Z AUTO 36006KT 3/4SM -SN BR VV014 M07/M09 A3021 RMK AO2 P0001
                 T10721089 $ =
2015-03-05 14:12 METAR KPTW 051912Z AUTO 35004KT 1 3/4SM -SN BKN022 OVC032 M07/M09 A3021 RMK AO2
                 P0001 T10671094 $ =
2015-03-05 13:54 METAR KPTW 051854Z AUTO 33004KT 6SM -SN BKN020 OVC032 M07/M09 A3022 RMK AO2
                 SLP233 P0000 T10671094 $ =
2015-03-05 13:46 METAR KPTW 051846Z AUTO 35005KT 2SM -SN BR BKN018 OVC028 M07/M09 A3021 RMK AO2
                 P0000 T10721094 $ =
2015-03-05 13:33 METAR KPTW 051833Z AUTO 34011G21KT 1SM -SN BR VV012 M07/M09 A3021 RMK AO2 PRESRR
                 P0000 T10721089 $ =
2015-03-05 13:24 METAR KPTW 051824Z AUTO 35014G20KT 3/4SM -SN BR VV011 M07/M09 A3019 RMK AO2
                 P0000 T10721089 $ =
2015-03-05 13:14 METAR KPTW 051814Z AUTO 34008KT 1/2SM SN FZFG VV009 M07/M08 A3019 RMK AO2 P0000
                 T10671078 $ =
2015-03-05 13:04 METAR KPTW 051804Z AUTO 33010KT 3/4SM -SN BR VV010 M07/M08 A3018 RMK AO2 P0000
                 T10671078 $ =
2015-03-05 12:54 METAR KPTW 051754Z AUTO 33009KT 1/2SM SN FZFG VV009 M07/M08 A3020 RMK AO2 SLP227
                 P0002 60012 T10671078 11006 21067 50022 $ =
2015-03-05 12:28 METAR KPTW 051728Z AUTO 36009KT 3/4SM -SN BR VV011 M06/M07 A3020 RMK AO2 P0001
                 T10611072 $ =
2015-03-05 12:19 METAR KPTW 051719Z AUTO 01009KT 1SM -SN BR VV011 M06/M07 A3020 RMK AO2 P0001
                 T10561067 $ =
2015-03-05 12:12 METAR KPTW 051712Z AUTO 35008KT 3/4SM -SN BR VV011 M06/M07 A3021 RMK AO2 P0001
                 T10561067 $ =
2015-03-05 11:54 METAR KPTW 051654Z AUTO 35011G17KT 1/2SM SN FZFG VV009 M06/M07 A3021 RMK AO2
                 SNB03SNEMMB16SNEMMB44 SLP231 P0001 T10561067 $ =
2015-03-05 11:42 METAR KPTW 051642Z AUTO 35010KT 1/2SM FZFG VV009 M06/M06 A3020 RMK AO2
                 SNB03SNEMMB16SNEMM P0001 T10561061 PWINO FZRANO $ =
2015-03-05 11:13 METAR KPTW 051613Z AUTO 36011KT 3/4SM BR VV010 M05/M06 A3018 RMK AO2 SNB03SNEMM
                 PRESRR P0000 T10501056 PWINO FZRANO $ =
2015-03-05 10:54 METAR KPTW 051554Z AUTO 01012KT 1/2SM FZFG VV009 M05/M06 A3015 RMK AO2
                 SNEMMB38SNEMM SLP210 P0001 T10501056 PWINO FZRANO $ =
2015-03-05 09:54 METAR KPTW 051454Z AUTO 36013G20KT 1/2SM SN FZFG VV009 M03/M04 A3013 RMK AO2
                 SNEMMB17 SLP203 P0002 60008 T10331044 51017 $ =
2015-03-05 09:47 METAR KPTW 051447Z AUTO 36014G20KT 1/2SM SN FZFG VV009 M03/M04 A3014 RMK AO2
                 SNEMMB17 P0002 T10331039 $ =
2015-03-05 09:26 METAR KPTW 051426Z AUTO 36012G17KT 3/4SM -SN BR FEW004 OVC010 M03/M03 A3014 RMK
                 AO2 SNEMMB17 P0001 T10281033 $ =
2015-03-05 09:12 METAR KPTW 051412Z AUTO 36010G21KT 1/2SM FZFG SCT004 OVC008 M03/M03 A3014 RMK
                 AO2 SNEMM P0001 T10281028 PWINO FZRANO $ =
2015-03-05 08:54 METAR KPTW 051354Z AUTO 36007KT 3/4SM -SN BR FEW005 OVC010 M02/M02 A3013 RMK AO2
                 SLP202 P0003 T10171017 =
2015-03-05 08:42 METAR KPTW 051342Z AUTO 36009KT 3/4SM -SN BR VV014 M02/M02 A3011 RMK AO2 P0002
                 T10171022 =
2015-03-05 08:31 METAR KPTW 051331Z AUTO 01010KT 3/4SM -SN BR FEW007 OVC015 M02/M02 A3012 RMK AO2
                 P0001 T10171022 =
2015-03-05 08:23 METAR KPTW 051323Z AUTO 01011KT 1SM -SN BR FEW007 OVC014 M01/M02 A3011 RMK AO2
                 P0001 T10111022 =
2015-03-05 08:05 METAR KPTW 051305Z AUTO 01008KT 3/4SM -SN BR FEW006 OVC013 M01/M02 A3009 RMK AO2
                 P0001 T10111017 $ =
2015-03-05 07:54 METAR KPTW 051254Z AUTO 35010KT 320V020 3/4SM -SN BR FEW005 SCT012 OVC019
                 M01/M01 A3009 RMK AO2 SLP188 P0003 T10061006 $ =
2015-03-05 07:50 METAR KPTW 051250Z AUTO 35007KT 1SM -SN BR FEW005 SCT010 OVC019 M01/M01 A3008
                 RMK AO2 P0003 $ =
2015-03-05 07:27 METAR KPTW 051227Z AUTO 36005KT 1 3/4SM -SN BR OVC017 M01/M01 A3006 RMK AO2
                 P0002 T10061006 $ =
2015-03-05 07:18 METAR KPTW 051218Z AUTO 34008KT 3/4SM -SN BR FEW007 OVC015 M01/M01 A3006 RMK AO2
                 P0002 T10061006 $ =
2015-03-05 06:57 METAR KPTW 051157Z AUTO 34005KT 1 1/2SM -SN BR SCT007 OVC021 00/00 A3006 RMK AO2
                 P0000 T00000000 $ =
2015-03-05 06:54 METAR KPTW 051154Z AUTO 34006KT 1 1/2SM -SN BR BKN007 BKN011 OVC019 00/00 A3006
                 RMK AO2 SLP181 P0003 60022 70064 T00000000 10022 20000 53029 $ =
2015-03-05 06:37 METAR KPTW 051137Z AUTO 32008KT 1 1/4SM -SN BR BKN007 OVC015 00/00 A3005 RMK AO2
                 P0003 T00000000 $ =
2015-03-05 06:27 METAR KPTW 051127Z AUTO 32006KT 1 1/2SM -SN BR FEW007 OVC019 00/00 A3005 RMK AO2
                 P0002 T00000000 $ =
2015-03-05 06:20 METAR KPTW 051120Z AUTO 31006KT 2SM -SN BR FEW009 OVC019 00/00 A3005 RMK AO2
                 P0001 T00000000 $ =
2015-03-05 06:12 METAR KPTW 051112Z AUTO 32007KT 3SM -SN BR FEW009 SCT012 OVC025 00/00 A3004 RMK
                 AO2 P0000 T00000000 $ =
2015-03-05 05:54 METAR KPTW 051054Z AUTO 31004KT 2 1/2SM -SN BR FEW007 SCT013 OVC021 00/00 A3002
                 RMK AO2 SLP167 P0004 T00000000 $ =
2015-03-05 05:26 METAR KPTW 051026Z AUTO 32006KT 2 1/2SM -SN BR FEW003 SCT013 OVC018 00/00 A3000
                 RMK AO2 P0002 T00000000 $ =
2015-03-05 05:20 METAR KPTW 051020Z AUTO 32007KT 3SM -SN BR FEW003 BKN013 OVC018 00/00 A3001 RMK
                 AO2 P0002 T00000000 $ =
2015-03-05 05:11 METAR KPTW 051011Z AUTO 30006KT 2SM -SN BR FEW003 SCT007 OVC016 00/00 A3001 RMK
                 AO2 P0002 T00000000 $ =
2015-03-05 05:08 METAR KPTW 051008Z AUTO 28003KT 1 3/4SM -SN BR FEW003 BKN012 OVC016 00/00 A3001
                 RMK AO2 P0001 T00000000 $ =
2015-03-05 04:54 METAR KPTW 050954Z AUTO 29007KT 2 1/2SM -SN BR SCT003 BKN009 OVC016 00/00 A3001
                 RMK AO2 SLP161 P0003 T00000000 $ =
2015-03-05 04:37 METAR KPTW 050937Z AUTO 30007KT 2 1/2SM -SN BR SCT003 BKN009 OVC012 00/00 A3000
                 RMK AO2 P0002 T00000000 $ =
2015-03-05 03:54 METAR KPTW 050854Z AUTO 29005KT 1 3/4SM -SN BR BKN003 OVC017 00/00 A2998 RMK AO2
                 SLP151 P0003 60012 T00000000 53011 $ =
2015-03-05 03:47 METAR KPTW 050847Z AUTO 29005KT 1 3/4SM -SN BR BKN003 OVC024 00/00 A2997 RMK AO2
                 P0002 T00000000 $ =
2015-03-05 03:40 METAR KPTW 050840Z AUTO 29005KT 2SM -SN BR SCT004 BKN027 OVC045 00/00 A2998 RMK
                 AO2 P0002 T00000000 $ =
2015-03-05 03:28 METAR KPTW 050828Z AUTO 29005KT 4SM -SN BR FEW004 BKN027 OVC045 01/01 A2998 RMK
                 AO2 P0001 T00060006 $ =
2015-03-05 02:54 METAR KPTW 050754Z AUTO 30005KT 6SM -SN BR FEW010 FEW016 OVC060 01/01 A2995 RMK
                 AO2 RAE54SNB54 SLP141 P0005 T00060006 $ =
2015-03-05 02:44 METAR KPTW 050744Z AUTO 30005KT 7SM -RA FEW008 SCT014 OVC060 01/01 A2995 RMK AO2
                 P0005 T00110011 $ =
2015-03-05 01:54 METAR KPTW 050654Z AUTO 29005KT 4SM RA BR BKN017 OVC050 02/02 A2997 RMK AO2
                 SLP148 P0004 T00170017 $ =
2015-03-05 01:33 METAR KPTW 050633Z AUTO 30004KT 4SM -RA BR BKN017 OVC049 02/02 A2995 RMK AO2
                 P0002 T00170017 $ =

Support USWX by starting your Amazon purchase here.